createdAt,value
2018-10-19T03:01:01.974Z,0.00
2018-10-19T03:02:02.252Z,0.00
2018-10-19T03:03:02.115Z,0.00
2018-10-19T03:04:02.258Z,0.00
2018-10-19T03:05:02.485Z,0.00
2018-10-19T03:06:02.605Z,0.00
2018-10-19T03:07:02.808Z,0.00
2018-10-19T03:08:02.956Z,0.00
2018-10-19T03:09:03.128Z,0.00
2018-10-19T03:10:03.263Z,0.00
2018-10-19T03:11:03.578Z,0.00
2018-10-19T03:12:03.574Z,0.00
2018-10-19T03:13:03.787Z,0.00
2018-10-19T03:14:03.940Z,0.00
2018-10-19T03:15:04.110Z,0.00
2018-10-19T03:16:04.316Z,0.00
2018-10-19T03:17:05.325Z,0.00
2018-10-19T03:18:04.639Z,0.00
2018-10-19T03:19:04.810Z,0.00
2018-10-19T03:20:04.916Z,0.00
2018-10-19T03:21:05.214Z,0.00
2018-10-19T03:22:05.287Z,0.00
2018-10-19T03:23:05.441Z,0.00
2018-10-19T03:24:05.527Z,0.00
2018-10-19T03:25:05.772Z,0.00
2018-10-19T03:26:05.892Z,0.00
2018-10-19T03:27:06.163Z,0.00
2018-10-19T03:28:06.275Z,0.00
2018-10-19T03:29:06.405Z,0.00
2018-10-19T03:30:06.547Z,0.00
2018-10-19T03:31:06.812Z,0.00
2018-10-19T03:32:06.908Z,0.00
2018-10-19T03:33:07.094Z,0.00
2018-10-19T03:34:07.206Z,0.00
2018-10-19T03:35:07.363Z,0.00
2018-10-19T03:36:07.537Z,0.00
2018-10-19T03:37:07.667Z,0.00
2018-10-19T03:38:07.847Z,0.00
2018-10-19T03:39:08.149Z,0.00
2018-10-19T03:40:08.234Z,0.00
2018-10-19T03:41:08.422Z,0.00
2018-10-19T03:42:08.540Z,0.00
2018-10-19T03:43:08.673Z,0.00
2018-10-19T03:44:08.919Z,0.00
2018-10-19T03:45:09.025Z,0.00
2018-10-19T03:46:09.167Z,0.00
2018-10-19T03:47:09.374Z,0.00
2018-10-19T03:48:09.579Z,0.00
2018-10-19T03:49:09.741Z,0.00
2018-10-19T03:50:09.879Z,0.00
2018-10-19T03:51:10.098Z,0.00
2018-10-19T03:52:10.204Z,0.00
2018-10-19T03:53:10.459Z,0.00
2018-10-19T03:54:10.532Z,0.00
2018-10-19T03:55:10.658Z,0.00
2018-10-19T03:56:10.795Z,0.00
2018-10-19T03:57:10.965Z,0.00
2018-10-19T03:58:11.116Z,0.00
2018-10-19T03:59:11.396Z,0.00
2018-10-19T04:00:11.427Z,0.00
2018-10-19T04:01:11.633Z,0.00
2018-10-19T04:02:11.755Z,0.00
2018-10-19T04:03:12.007Z,0.00
2018-10-19T04:04:12.322Z,0.00
2018-10-19T04:05:12.412Z,0.00
2018-10-19T04:06:12.637Z,0.00
2018-10-19T04:07:12.638Z,0.00
2018-10-19T04:08:12.824Z,0.00
2018-10-19T04:09:13.073Z,0.00
2018-10-19T04:10:13.111Z,0.00
2018-10-19T04:11:13.317Z,0.00
2018-10-19T04:12:13.494Z,0.00
2018-10-19T04:13:13.751Z,0.00
2018-10-19T04:14:14.017Z,0.00
2018-10-19T04:15:14.030Z,0.00
2018-10-19T04:16:14.165Z,0.00
2018-10-19T04:17:14.405Z,0.00
2018-10-19T04:18:14.421Z,0.00
2018-10-19T04:19:14.695Z,0.00
2018-10-19T04:20:14.813Z,0.00
2018-10-19T04:21:15.046Z,0.00
2018-10-19T04:22:15.305Z,0.00
2018-10-19T04:23:15.401Z,0.00
2018-10-19T04:24:15.509Z,0.00
2018-10-19T04:25:15.695Z,0.00
2018-10-19T04:26:15.788Z,0.00
2018-10-19T04:27:16.088Z,0.00
2018-10-19T04:28:16.186Z,0.00
2018-10-19T04:29:16.458Z,0.00
2018-10-19T04:30:16.585Z,0.00
2018-10-19T04:31:16.807Z,0.00
2018-10-19T04:32:16.821Z,0.00
2018-10-19T04:33:17.151Z,0.00
2018-10-19T04:34:17.236Z,0.00
2018-10-19T04:35:17.618Z,0.00
2018-10-19T04:36:17.575Z,0.00
2018-10-19T04:37:17.633Z,0.00
2018-10-19T04:38:17.963Z,0.00
2018-10-19T04:39:18.288Z,0.00
2018-10-19T04:40:19.150Z,0.00
2018-10-19T04:41:18.612Z,0.00
2018-10-19T04:42:18.854Z,0.00
2018-10-19T04:43:18.750Z,0.00
2018-10-19T04:44:18.981Z,0.00
2018-10-19T04:45:19.181Z,0.00
2018-10-19T04:46:19.831Z,0.00
2018-10-19T04:47:19.524Z,0.00
2018-10-19T04:48:19.642Z,0.00
2018-10-19T04:49:19.813Z,0.00
2018-10-19T04:50:19.917Z,0.00
2018-10-19T04:51:20.157Z,0.00
2018-10-19T04:52:20.314Z,0.00
2018-10-19T04:53:20.542Z,0.00
2018-10-19T04:54:20.670Z,0.00
2018-10-19T04:55:20.807Z,0.00
2018-10-19T04:56:20.981Z,0.00
2018-10-19T04:57:21.226Z,0.00
2018-10-19T04:58:21.508Z,0.00
2018-10-19T04:59:21.443Z,0.00
2018-10-19T05:00:21.598Z,0.00
2018-10-19T05:01:21.909Z,0.00
2018-10-19T05:02:21.967Z,0.00
2018-10-19T05:03:22.484Z,0.00
2018-10-19T05:04:22.447Z,0.00
2018-10-19T05:05:22.652Z,0.00
2018-10-19T05:06:22.683Z,0.00
2018-10-19T05:07:22.999Z,0.00
2018-10-19T05:08:23.176Z,0.00
2018-10-19T05:09:23.401Z,0.00
2018-10-19T05:10:23.565Z,0.00
2018-10-19T05:11:23.537Z,0.00
2018-10-19T05:12:23.799Z,0.00
2018-10-19T05:13:23.908Z,0.00
2018-10-19T05:14:24.052Z,0.00
2018-10-19T05:15:24.321Z,0.00
2018-10-19T05:16:24.605Z,0.00
2018-10-19T05:17:24.654Z,0.00
2018-10-19T05:18:24.933Z,0.00
2018-10-19T05:19:25.001Z,0.00
2018-10-19T05:20:25.259Z,0.00
2018-10-19T05:21:25.479Z,0.00
2018-10-19T05:22:25.534Z,0.00
2018-10-19T05:23:25.716Z,0.00
2018-10-19T05:24:26.416Z,0.00
2018-10-19T05:25:26.317Z,0.00
2018-10-19T05:26:26.441Z,0.00
2018-10-19T05:27:26.613Z,0.00
2018-10-19T05:28:26.520Z,0.00
2018-10-19T05:29:26.750Z,0.00
2018-10-19T05:30:26.924Z,0.00
2018-10-19T05:31:27.036Z,0.00
2018-10-19T05:32:27.196Z,0.00
2018-10-19T05:33:27.406Z,0.00
2018-10-19T05:34:27.614Z,0.00
2018-10-19T05:35:27.633Z,0.00
2018-10-19T05:36:28.269Z,0.00
2018-10-19T05:37:28.010Z,0.00
2018-10-19T05:38:28.318Z,0.00
2018-10-19T05:39:28.527Z,0.00
2018-10-19T05:40:28.647Z,0.00
2018-10-19T05:41:28.848Z,0.00
2018-10-19T05:42:28.965Z,0.00
2018-10-19T05:43:29.164Z,0.00
2018-10-19T05:44:29.368Z,0.00
2018-10-19T05:45:29.438Z,0.00
2018-10-19T05:46:29.757Z,0.00
2018-10-19T05:47:29.856Z,0.00
2018-10-19T05:48:30.054Z,0.00
2018-10-19T05:49:30.284Z,0.00
2018-10-19T05:50:30.395Z,0.00
2018-10-19T05:51:30.716Z,0.00
2018-10-19T05:52:30.894Z,0.00
2018-10-19T05:53:31.106Z,0.00
2018-10-19T05:54:31.209Z,0.00
2018-10-19T05:55:31.325Z,0.00
2018-10-19T05:56:31.511Z,0.00
2018-10-19T05:57:31.713Z,0.00
2018-10-19T05:58:31.839Z,0.00
2018-10-19T05:59:31.925Z,0.00
2018-10-19T06:00:32.211Z,5.63
2018-10-19T06:01:32.402Z,5.63
2018-10-19T06:02:32.719Z,5.63
2018-10-19T06:03:32.828Z,5.63
2018-10-19T06:04:32.943Z,5.63
2018-10-19T06:05:33.071Z,5.63
2018-10-19T06:06:33.307Z,5.63
2018-10-19T06:07:33.384Z,5.63
2018-10-19T06:08:33.840Z,5.63
2018-10-19T06:09:33.848Z,5.63
2018-10-19T06:10:34.059Z,5.63
2018-10-19T06:11:34.169Z,11.25
2018-10-19T06:12:34.199Z,11.25
2018-10-19T06:13:34.425Z,11.25
2018-10-19T06:14:34.580Z,11.25
2018-10-19T06:15:34.727Z,11.25
2018-10-19T06:16:34.886Z,11.25
2018-10-19T06:17:35.056Z,11.25
2018-10-19T06:18:35.237Z,16.88
2018-10-19T06:19:35.373Z,16.88
2018-10-19T06:20:35.644Z,16.88
2018-10-19T06:21:35.796Z,16.88
2018-10-19T06:22:36.107Z,16.88
2018-10-19T06:23:36.043Z,16.88
2018-10-19T06:24:36.293Z,16.88
2018-10-19T06:25:36.382Z,16.88
2018-10-19T06:26:36.685Z,16.88
2018-10-19T06:27:36.891Z,16.88
2018-10-19T06:28:36.951Z,16.88
2018-10-19T06:29:37.087Z,22.50
2018-10-19T06:30:37.282Z,22.50
2018-10-19T06:31:37.447Z,22.50
2018-10-19T06:32:37.620Z,22.50
2018-10-19T06:33:37.769Z,22.50
2018-10-19T06:34:37.955Z,22.50
2018-10-19T06:35:38.255Z,22.50
2018-10-19T06:36:38.403Z,22.50
2018-10-19T06:37:38.409Z,22.50
2018-10-19T06:38:38.643Z,22.50
2018-10-19T06:39:38.772Z,22.50
2018-10-19T06:40:38.956Z,22.50
2018-10-19T06:41:39.161Z,22.50
2018-10-19T06:42:39.254Z,22.50
2018-10-19T06:43:39.475Z,22.50
2018-10-19T06:44:39.710Z,28.13
2018-10-19T06:45:39.802Z,28.13
2018-10-19T06:46:40.030Z,28.13
2018-10-19T06:47:40.053Z,33.75
2018-10-19T06:48:40.306Z,28.13
2018-10-19T06:49:40.452Z,28.13
2018-10-19T06:50:40.584Z,28.13
2018-10-19T06:51:40.846Z,33.75
2018-10-19T06:52:40.982Z,33.75
2018-10-19T06:53:41.117Z,33.75
2018-10-19T06:54:41.273Z,33.75
2018-10-19T06:55:41.425Z,33.75
2018-10-19T06:56:41.587Z,33.75
2018-10-19T06:57:41.698Z,33.75
2018-10-19T06:58:42.013Z,33.75
2018-10-19T06:59:42.190Z,33.75
2018-10-19T07:00:42.266Z,33.75
2018-10-19T07:01:42.461Z,33.75
2018-10-19T07:02:42.615Z,33.75
2018-10-19T07:03:42.751Z,33.75
2018-10-19T07:04:42.956Z,33.75
2018-10-19T07:05:43.170Z,39.38
2018-10-19T07:06:43.331Z,33.75
2018-10-19T07:07:43.478Z,39.38
2018-10-19T07:08:43.573Z,39.38
2018-10-19T07:09:43.777Z,39.38
2018-10-19T07:10:43.897Z,39.38
2018-10-19T07:11:44.167Z,39.38
2018-10-19T07:12:44.298Z,39.38
2018-10-19T07:13:44.512Z,39.38
2018-10-19T07:14:44.693Z,39.38
2018-10-19T07:15:44.911Z,45.00
2018-10-19T07:16:45.008Z,45.00
2018-10-19T07:17:45.196Z,50.63
2018-10-19T07:18:45.320Z,50.63
2018-10-19T07:19:45.479Z,56.25
2018-10-19T07:20:45.617Z,61.88
2018-10-19T07:21:45.916Z,61.88
2018-10-19T07:22:46.064Z,61.88
2018-10-19T07:23:46.205Z,56.25
2018-10-19T07:24:46.325Z,56.25
2018-10-19T07:25:46.586Z,56.25
2018-10-19T07:26:46.708Z,56.25
2018-10-19T07:27:46.870Z,56.25
2018-10-19T07:28:47.096Z,56.25
2018-10-19T07:29:47.223Z,56.25
2018-10-19T07:30:47.389Z,56.25
2018-10-19T07:31:47.659Z,56.25
2018-10-19T07:32:47.746Z,56.25
2018-10-19T07:33:47.961Z,61.88
2018-10-19T07:34:48.161Z,61.88
2018-10-19T07:35:48.318Z,67.50
2018-10-19T07:36:48.424Z,67.50
2018-10-19T07:37:48.708Z,73.13
2018-10-19T07:38:48.856Z,84.38
2018-10-19T07:39:48.880Z,84.38
2018-10-19T07:40:49.093Z,84.38
2018-10-19T07:41:49.274Z,90.00
2018-10-19T07:42:49.418Z,90.00
2018-10-19T07:43:49.604Z,84.38
2018-10-19T07:44:49.800Z,78.75
2018-10-19T07:45:49.925Z,78.75
2018-10-19T07:46:50.293Z,73.13
2018-10-19T07:47:50.363Z,73.13
2018-10-19T07:48:50.415Z,78.75
2018-10-19T07:49:50.610Z,84.38
2018-10-19T07:50:50.705Z,90.00
2018-10-19T07:51:50.906Z,90.00
2018-10-19T07:52:51.166Z,84.38
2018-10-19T07:53:51.234Z,78.75
2018-10-19T07:54:51.364Z,84.38
2018-10-19T07:55:51.606Z,84.38
2018-10-19T07:56:51.769Z,84.38
2018-10-19T07:57:51.837Z,90.00
2018-10-19T07:58:52.211Z,90.00
2018-10-19T07:59:52.195Z,90.00
2018-10-19T08:00:52.567Z,78.75
2018-10-19T08:01:52.555Z,78.75
2018-10-19T08:02:52.674Z,84.38
2018-10-19T08:03:52.790Z,84.38
2018-10-19T08:04:53.100Z,84.38
2018-10-19T08:05:53.199Z,84.38
2018-10-19T08:06:53.255Z,78.75
2018-10-19T08:07:53.637Z,73.13
2018-10-19T08:08:53.636Z,78.75
2018-10-19T08:09:53.875Z,78.75
2018-10-19T08:10:53.920Z,78.75
2018-10-19T08:11:54.212Z,73.13
2018-10-19T08:12:54.519Z,73.13
2018-10-19T08:13:54.511Z,78.75
2018-10-19T08:14:54.690Z,73.13
2018-10-19T08:15:54.810Z,67.50
2018-10-19T08:16:55.025Z,61.88
2018-10-19T08:17:55.140Z,61.88
2018-10-19T08:18:55.319Z,56.25
2018-10-19T08:19:55.475Z,56.25
2018-10-19T08:20:55.651Z,56.25
2018-10-19T08:21:55.813Z,61.88
2018-10-19T08:22:56.081Z,61.88
2018-10-19T08:23:56.114Z,61.88
2018-10-19T08:24:56.252Z,61.88
2018-10-19T08:25:56.576Z,61.88
2018-10-19T08:26:56.684Z,67.50
2018-10-19T08:27:56.735Z,67.50
2018-10-19T08:28:57.077Z,61.88
2018-10-19T08:29:57.108Z,67.50
2018-10-19T08:30:57.377Z,67.50
2018-10-19T08:31:57.418Z,67.50
2018-10-19T08:32:57.704Z,78.75
2018-10-19T08:33:57.852Z,84.38
2018-10-19T08:34:58.079Z,90.00
2018-10-19T08:35:58.131Z,84.38
2018-10-19T08:36:58.417Z,84.38
2018-10-19T08:37:59.004Z,90.00
2018-10-19T08:38:58.744Z,90.00
2018-10-19T08:39:58.949Z,90.00
2018-10-19T08:40:59.164Z,90.00
2018-10-19T08:41:59.328Z,101.25
2018-10-19T08:42:59.534Z,123.75
2018-10-19T08:43:59.515Z,129.38
2018-10-19T08:44:59.812Z,123.75
2018-10-19T08:45:59.916Z,123.75
2018-10-19T08:47:00.116Z,118.13
2018-10-19T08:48:00.401Z,112.50
2018-10-19T08:49:00.433Z,106.88
2018-10-19T08:50:00.559Z,106.88
2018-10-19T08:51:00.808Z,112.50
2018-10-19T08:52:00.873Z,118.13
2018-10-19T08:53:01.103Z,129.38
2018-10-19T08:54:01.223Z,123.75
2018-10-19T08:55:01.418Z,135.00
2018-10-19T08:56:01.550Z,135.00
2018-10-19T08:57:01.705Z,135.00
2018-10-19T08:58:01.997Z,135.00
2018-10-19T08:59:02.098Z,140.63
2018-10-19T09:00:02.368Z,146.25
2018-10-19T09:01:02.389Z,163.13
2018-10-19T09:02:02.684Z,174.38
2018-10-19T09:03:02.812Z,168.75
2018-10-19T09:04:03.107Z,163.13
2018-10-19T09:05:03.279Z,157.50
2018-10-19T09:06:03.469Z,168.75
2018-10-19T09:07:03.594Z,174.38
2018-10-19T09:08:03.720Z,168.75
2018-10-19T09:09:03.924Z,174.38
2018-10-19T09:10:03.979Z,185.63
2018-10-19T09:11:04.265Z,208.13
2018-10-19T09:12:04.501Z,208.13
2018-10-19T09:13:04.510Z,174.38
2018-10-19T09:14:04.692Z,174.38
2018-10-19T09:15:04.932Z,180.00
2018-10-19T09:16:04.966Z,180.00
2018-10-19T09:17:05.246Z,174.38
2018-10-19T09:18:05.285Z,180.00
2018-10-19T09:19:05.534Z,180.00
2018-10-19T09:20:05.691Z,174.38
2018-10-19T09:21:05.763Z,174.38
2018-10-19T09:22:06.015Z,174.38
2018-10-19T09:23:06.291Z,191.25
2018-10-19T09:24:06.306Z,213.75
2018-10-19T09:25:06.494Z,219.38
2018-10-19T09:26:06.649Z,213.75
2018-10-19T09:27:06.835Z,225.00
2018-10-19T09:28:07.003Z,236.25
2018-10-19T09:29:07.337Z,241.88
2018-10-19T09:30:07.347Z,253.13
2018-10-19T09:31:07.558Z,264.38
2018-10-19T09:32:07.690Z,258.75
2018-10-19T09:33:07.891Z,258.75
2018-10-19T09:34:08.016Z,253.13
2018-10-19T09:35:08.213Z,258.75
2018-10-19T09:36:08.495Z,258.75
2018-10-19T09:37:08.609Z,241.88
2018-10-19T09:38:08.714Z,230.63
2018-10-19T09:39:08.920Z,230.63
2018-10-19T09:40:09.074Z,241.88
2018-10-19T09:41:09.303Z,247.50
2018-10-19T09:42:09.459Z,258.75
2018-10-19T09:43:09.775Z,253.13
2018-10-19T09:44:09.757Z,258.75
2018-10-19T09:45:09.930Z,270.00
2018-10-19T09:46:10.187Z,281.25
2018-10-19T09:47:10.321Z,270.00
2018-10-19T09:48:10.492Z,264.38
2018-10-19T09:49:10.742Z,270.00
2018-10-19T09:50:10.767Z,286.88
2018-10-19T09:51:10.986Z,303.75
2018-10-19T09:52:11.185Z,298.13
2018-10-19T09:53:11.352Z,303.75
2018-10-19T09:54:11.433Z,326.25
2018-10-19T09:55:11.554Z,343.13
2018-10-19T09:56:11.840Z,348.75
2018-10-19T09:57:11.979Z,354.38
2018-10-19T09:58:12.033Z,365.63
2018-10-19T09:59:12.311Z,365.63
2018-10-19T10:00:12.443Z,360.00
2018-10-19T10:01:12.632Z,365.63
2018-10-19T10:02:12.951Z,382.50
2018-10-19T10:03:13.292Z,388.13
2018-10-19T10:04:13.128Z,393.75
2018-10-19T10:05:13.312Z,410.63
2018-10-19T10:06:13.439Z,433.13
2018-10-19T10:07:13.622Z,427.50
2018-10-19T10:08:13.798Z,433.13
2018-10-19T10:09:13.889Z,421.88
2018-10-19T10:10:14.095Z,433.13
2018-10-19T10:11:14.282Z,489.38
2018-10-19T10:12:14.435Z,528.75
2018-10-19T10:13:14.727Z,506.25
2018-10-19T10:14:14.775Z,444.38
2018-10-19T10:15:14.969Z,444.38
2018-10-19T10:16:15.135Z,495.00
2018-10-19T10:17:15.275Z,540.00
2018-10-19T10:18:15.461Z,551.25
2018-10-19T10:19:15.658Z,596.25
2018-10-19T10:20:15.699Z,652.50
2018-10-19T10:21:15.848Z,663.75
2018-10-19T10:22:16.003Z,652.50
2018-10-19T10:23:16.247Z,658.13
2018-10-19T10:24:16.463Z,703.13
2018-10-19T10:25:16.631Z,669.38
2018-10-19T10:26:16.673Z,663.75
2018-10-19T10:27:16.850Z,669.38
2018-10-19T10:28:17.092Z,686.25
2018-10-19T10:29:17.361Z,517.50
2018-10-19T10:30:17.326Z,534.38
2018-10-19T10:31:17.552Z,573.75
2018-10-19T10:32:17.667Z,635.63
2018-10-19T10:33:17.809Z,641.25
2018-10-19T10:34:18.110Z,635.63
2018-10-19T10:35:18.124Z,618.75
2018-10-19T10:36:18.341Z,787.50
2018-10-19T10:37:18.565Z,759.38
2018-10-19T10:38:18.781Z,765.00
2018-10-19T10:39:18.943Z,776.25
2018-10-19T10:40:19.017Z,742.50
2018-10-19T10:41:19.226Z,725.63
2018-10-19T10:42:19.352Z,675.00
2018-10-19T10:43:19.521Z,652.50
2018-10-19T10:44:19.716Z,635.63
2018-10-19T10:45:19.788Z,635.63
2018-10-19T10:46:20.035Z,635.63
2018-10-19T10:47:20.207Z,652.50
2018-10-19T10:48:20.351Z,675.00
2018-10-19T10:49:20.557Z,680.63
2018-10-19T10:50:20.635Z,686.25
2018-10-19T10:51:20.848Z,708.75
2018-10-19T10:52:21.003Z,765.00
2018-10-19T10:53:21.287Z,821.25
2018-10-19T10:54:21.377Z,866.25
2018-10-19T10:55:21.664Z,894.38
2018-10-19T10:56:21.727Z,905.63
2018-10-19T10:57:21.915Z,916.88
2018-10-19T10:58:22.002Z,922.50
2018-10-19T10:59:22.350Z,939.38
2018-10-19T11:00:22.421Z,928.13
2018-10-19T11:01:22.588Z,888.75
2018-10-19T11:02:22.622Z,866.25
2018-10-19T11:03:22.888Z,877.50
2018-10-19T11:04:23.130Z,900.00
2018-10-19T11:05:23.262Z,956.25
2018-10-19T11:06:23.415Z,1023.75
2018-10-19T11:07:23.620Z,1068.75
2018-10-19T11:08:23.596Z,1068.75
2018-10-19T11:09:23.955Z,1068.75
2018-10-19T11:10:24.035Z,1096.88
2018-10-19T11:11:24.198Z,1125.00
2018-10-19T11:12:24.416Z,1170.00
2018-10-19T11:13:24.592Z,1468.13
2018-10-19T11:14:24.777Z,1653.75
2018-10-19T11:15:24.961Z,1108.13
2018-10-19T11:16:25.126Z,1096.88
2018-10-19T11:17:25.357Z,1091.25
2018-10-19T11:18:25.388Z,1091.25
2018-10-19T11:19:25.713Z,1074.38
2018-10-19T11:20:25.860Z,1006.88
2018-10-19T11:21:26.000Z,1006.88
2018-10-19T11:22:26.209Z,1023.75
2018-10-19T11:23:26.471Z,1012.50
2018-10-19T11:24:26.442Z,1074.38
2018-10-19T11:25:26.648Z,973.13
2018-10-19T11:26:26.832Z,855.00
2018-10-19T11:27:27.195Z,871.88
2018-10-19T11:28:27.642Z,922.50
2018-10-19T11:29:28.075Z,961.88
2018-10-19T11:30:28.713Z,939.38
2018-10-19T11:31:27.743Z,922.50
2018-10-19T11:32:27.918Z,945.00
2018-10-19T11:33:35.186Z,950.63
2018-10-19T11:36:03.248Z,978.75
2018-10-19T11:38:02.671Z,939.38
2018-10-19T11:39:02.750Z,973.13
2018-10-19T11:40:03.138Z,1018.13
2018-10-19T11:41:03.249Z,1091.25
2018-10-19T11:42:03.362Z,1068.75
2018-10-19T11:43:03.607Z,978.75
2018-10-19T11:44:03.673Z,933.75
2018-10-19T11:45:05.297Z,916.88
2018-10-19T11:46:04.071Z,905.63
2018-10-19T11:47:04.378Z,888.75
2018-10-19T11:48:07.044Z,877.50
2018-10-19T11:49:04.586Z,900.00
2018-10-19T11:50:04.747Z,967.50
2018-10-19T11:51:05.011Z,973.13
2018-10-19T11:52:05.163Z,973.13
2018-10-19T11:53:06.114Z,973.13
2018-10-19T11:54:05.541Z,1001.25
2018-10-19T11:55:06.812Z,1051.88
2018-10-19T11:56:06.916Z,1226.25
2018-10-19T11:57:05.948Z,1108.13
2018-10-19T11:58:06.633Z,1068.75
2018-10-19T11:59:06.421Z,1051.88
2018-10-19T12:00:06.784Z,1057.50
2018-10-19T12:01:06.808Z,1057.50
2018-10-19T12:02:06.864Z,1057.50
2018-10-19T12:03:08.173Z,1046.25
2018-10-19T12:04:08.272Z,1051.88
2018-10-19T12:05:07.434Z,1102.50
2018-10-19T12:07:07.855Z,1389.38
2018-10-19T12:09:08.194Z,1411.88
2018-10-19T12:10:09.624Z,1411.88
2018-10-19T12:11:08.499Z,1479.38
2018-10-19T12:12:08.668Z,1428.75
2018-10-19T12:13:08.902Z,1406.25
2018-10-19T12:14:08.999Z,1417.50
2018-10-19T12:15:09.275Z,1642.50
2018-10-19T12:16:09.463Z,1608.75
2018-10-19T12:17:09.601Z,1620.00
2018-10-19T12:18:10.028Z,1704.38
2018-10-19T12:19:09.950Z,1636.88
2018-10-19T12:20:09.976Z,1541.25
2018-10-19T12:21:10.178Z,1687.50
2018-10-19T12:22:10.446Z,1383.75
2018-10-19T12:23:10.488Z,1293.75
2018-10-19T12:24:10.794Z,1276.88
2018-10-19T12:25:10.927Z,1265.63
2018-10-19T12:26:18.770Z,1248.75
2018-10-19T12:27:20.626Z,1226.25
2018-10-19T12:30:01.936Z,1338.75
2018-10-19T12:31:04.410Z,1260.00
2018-10-19T12:33:38.419Z,1164.38
2018-10-19T12:34:35.884Z,1170.00
2018-10-19T12:35:35.756Z,1333.13
2018-10-19T12:36:35.797Z,1372.50
2018-10-19T12:37:36.010Z,1310.63
2018-10-19T12:38:36.367Z,1231.88
2018-10-19T12:39:36.827Z,1226.25
2018-10-19T12:40:36.632Z,1198.13
2018-10-19T12:41:36.654Z,1198.13
2018-10-19T12:42:36.867Z,1198.13
2018-10-19T12:43:37.064Z,1175.63
2018-10-19T12:44:37.231Z,1141.88
2018-10-19T12:45:37.379Z,1096.88
2018-10-19T12:46:37.569Z,1063.13
2018-10-19T12:47:37.720Z,1018.13
2018-10-19T12:48:37.956Z,990.00
2018-10-19T12:49:38.026Z,973.13
2018-10-19T12:50:38.208Z,961.88
2018-10-19T12:51:38.415Z,950.63
2018-10-19T12:52:38.573Z,928.13
2018-10-19T12:53:38.749Z,922.50
2018-10-19T12:54:39.227Z,905.63
2018-10-19T12:55:39.452Z,916.88
2018-10-19T12:56:39.186Z,950.63
2018-10-19T12:57:39.688Z,984.38
2018-10-19T12:58:39.685Z,1018.13
2018-10-19T12:59:39.727Z,1057.50
2018-10-19T13:00:40.656Z,1091.25
2018-10-19T13:01:40.226Z,1102.50
2018-10-19T13:02:40.298Z,1108.13
2018-10-19T13:03:40.409Z,1096.88
2018-10-19T13:04:40.569Z,1080.00
2018-10-19T13:05:40.755Z,1063.13
2018-10-19T13:06:40.914Z,1051.88
2018-10-19T13:07:41.047Z,1051.88
2018-10-19T13:08:41.302Z,1057.50
2018-10-19T13:09:41.399Z,1074.38
2018-10-19T13:10:41.566Z,1080.00
2018-10-19T13:11:41.722Z,1068.75
2018-10-19T13:12:41.946Z,1074.38
2018-10-19T13:13:42.077Z,1091.25
2018-10-19T13:14:42.207Z,1091.25
2018-10-19T13:15:42.520Z,1085.63
2018-10-19T13:16:42.649Z,1080.00
2018-10-19T13:17:43.021Z,1080.00
2018-10-19T13:18:43.069Z,1119.38
2018-10-19T13:19:43.211Z,1231.88
2018-10-19T13:20:43.263Z,1597.50
2018-10-19T13:21:43.555Z,2621.25
2018-10-19T13:22:43.634Z,2880.00
2018-10-19T13:23:43.869Z,1513.13
2018-10-19T13:24:44.573Z,1546.88
2018-10-19T13:25:44.243Z,1372.50
2018-10-19T13:26:44.444Z,1406.25
2018-10-19T13:27:44.624Z,1361.25
2018-10-19T13:28:44.801Z,1299.38
2018-10-19T13:29:44.973Z,1299.38
2018-10-19T13:30:45.240Z,1248.75
2018-10-19T13:31:45.389Z,1220.63
2018-10-19T13:32:45.502Z,1215.00
2018-10-19T13:33:45.674Z,1181.25
2018-10-19T13:34:45.792Z,1175.63
2018-10-19T13:35:46.014Z,1141.88
2018-10-19T13:36:46.152Z,1108.13
2018-10-19T13:37:46.346Z,1085.63
2018-10-19T13:38:46.505Z,1068.75
2018-10-19T13:39:46.748Z,1035.00
2018-10-19T13:40:46.867Z,1029.38
2018-10-19T13:41:47.057Z,1018.13
2018-10-19T13:42:47.303Z,1018.13
2018-10-19T13:43:47.364Z,1006.88
2018-10-19T13:44:47.573Z,1006.88
2018-10-19T13:45:47.749Z,1006.88
2018-10-19T13:46:48.018Z,1001.25
2018-10-19T13:47:48.113Z,990.00
2018-10-19T13:48:48.254Z,967.50
2018-10-19T13:49:48.549Z,911.25
2018-10-19T13:50:48.641Z,860.63
2018-10-19T13:51:48.810Z,821.25
2018-10-19T13:52:48.984Z,815.63
2018-10-19T13:53:49.309Z,821.25
2018-10-19T13:54:49.381Z,731.25
2018-10-19T13:55:49.587Z,697.50
2018-10-19T13:56:49.746Z,686.25
2018-10-19T13:57:49.943Z,697.50
2018-10-19T13:58:50.048Z,680.63
2018-10-19T13:59:50.299Z,646.88
2018-10-19T14:00:50.437Z,630.00
2018-10-19T14:01:50.570Z,624.38
2018-10-19T14:02:50.768Z,686.25
2018-10-19T14:03:51.836Z,601.88
2018-10-19T14:04:51.686Z,562.50
2018-10-19T14:05:51.316Z,551.25
2018-10-19T14:06:51.477Z,528.75
2018-10-19T14:07:51.641Z,511.88
2018-10-19T14:08:51.768Z,495.00
2018-10-19T14:09:51.973Z,500.63
2018-10-19T14:10:52.118Z,523.13
2018-10-19T14:11:52.255Z,540.00
2018-10-19T14:12:52.493Z,551.25
2018-10-19T14:13:52.733Z,562.50
2018-10-19T14:14:52.960Z,562.50
2018-10-19T14:15:53.033Z,568.13
2018-10-19T14:16:53.229Z,585.00
2018-10-19T14:17:53.437Z,590.63
2018-10-19T14:18:53.608Z,590.63
2018-10-19T14:19:53.797Z,590.63
2018-10-19T14:20:54.299Z,596.25
2018-10-19T14:21:54.164Z,585.00
2018-10-19T14:22:54.386Z,568.13
2018-10-19T14:23:54.456Z,540.00
2018-10-19T14:25:54.915Z,511.88
2018-10-19T14:26:55.026Z,500.63
2018-10-19T14:28:05.209Z,495.00
2018-10-19T14:28:55.889Z,466.88
2018-10-19T14:29:56.696Z,433.13
2018-10-19T14:30:55.716Z,405.00
2018-10-19T14:32:00.003Z,343.13
2018-10-19T14:34:59.786Z,264.38
2018-10-19T14:35:56.548Z,258.75
2018-10-19T14:36:56.666Z,253.13
2018-10-19T14:37:56.858Z,253.13
2018-10-19T14:38:57.135Z,258.75
2018-10-19T14:39:57.207Z,270.00
2018-10-19T14:40:57.453Z,264.38
2018-10-19T14:41:57.609Z,270.00
2018-10-19T14:43:58.032Z,270.00
2018-10-19T14:44:58.154Z,275.63
2018-10-19T14:45:58.378Z,281.25
2018-10-19T14:46:58.534Z,286.88
2018-10-19T14:48:58.960Z,286.88
2018-10-19T14:49:59.080Z,286.88
2018-10-19T14:50:59.263Z,292.50
2018-10-19T14:51:59.294Z,292.50
2018-10-19T14:52:59.490Z,275.63
2018-10-19T14:54:00.059Z,264.38
2018-10-19T14:56:04.645Z,236.25
2018-10-19T15:00:35.888Z,225.00
2018-10-19T15:01:48.843Z,225.00
2018-10-19T15:02:37.935Z,225.00
2018-10-19T15:04:39.680Z,208.13
2018-10-19T15:05:37.443Z,191.25
2018-10-19T15:06:37.381Z,185.63
2018-10-19T15:07:37.694Z,174.38
2018-10-19T15:09:37.938Z,163.13
2018-10-19T15:12:38.258Z,140.63
2018-10-19T15:13:38.833Z,129.38
2018-10-19T15:14:39.754Z,123.75
2018-10-19T15:16:22.620Z,112.50
2018-10-19T15:16:38.607Z,112.50
2018-10-19T15:17:38.906Z,106.88
2018-10-19T15:21:37.129Z,84.38
2018-10-19T15:22:37.219Z,78.75
2018-10-19T15:23:37.394Z,78.75
2018-10-19T15:24:37.622Z,73.13
2018-10-19T15:25:37.948Z,73.13
2018-10-19T15:26:37.911Z,73.13
2018-10-19T15:27:38.285Z,73.13
2018-10-19T15:28:38.579Z,73.13
2018-10-19T15:29:38.619Z,73.13
2018-10-19T15:30:38.642Z,73.13
2018-10-19T15:31:38.934Z,78.75
2018-10-19T15:32:39.024Z,84.38
2018-10-19T15:33:39.649Z,90.00
2018-10-19T15:34:39.721Z,90.00
2018-10-19T15:35:39.936Z,90.00
2018-10-19T15:40:42.232Z,78.75
2018-10-19T15:41:42.614Z,78.75
2018-10-19T15:42:42.983Z,78.75
2018-10-19T15:43:43.003Z,84.38
2018-10-19T15:45:43.525Z,84.38
2018-10-19T15:48:25.568Z,78.75
2018-10-19T15:48:43.513Z,78.75
2018-10-19T15:49:44.652Z,78.75
2018-10-19T15:50:44.122Z,78.75
2018-10-19T15:51:42.184Z,78.75
2018-10-19T15:52:42.275Z,78.75
2018-10-19T15:55:18.160Z,73.13
2018-10-19T15:56:17.620Z,67.50
2018-10-19T15:57:17.002Z,61.88
2018-10-19T15:58:16.034Z,56.25
2018-10-19T15:59:16.454Z,56.25
2018-10-19T16:00:30.483Z,56.25
2018-10-19T16:01:16.493Z,56.25
2018-10-19T16:02:16.691Z,56.25
2018-10-19T16:03:16.966Z,56.25
2018-10-19T16:05:17.699Z,56.25
2018-10-19T16:06:17.483Z,50.63
2018-10-19T16:07:17.627Z,50.63
2018-10-19T16:08:17.813Z,45.00
2018-10-19T16:09:18.023Z,45.00
2018-10-19T16:10:18.198Z,45.00
2018-10-19T16:11:18.360Z,45.00
2018-10-19T16:12:18.465Z,39.38
2018-10-19T16:13:18.741Z,39.38
2018-10-19T16:14:18.917Z,39.38
2018-10-19T16:15:19.288Z,33.75
2018-10-19T16:16:19.485Z,33.75
2018-10-19T16:17:19.756Z,28.13
2018-10-19T16:18:20.078Z,28.13